createdAt,value
2023-02-14T00:00:41.916Z,2.46
2023-02-14T00:01:43.653Z,2.46
2023-02-14T00:02:45.516Z,2.46
2023-02-14T00:03:47.123Z,2.46
2023-02-14T00:04:48.886Z,2.47
2023-02-14T00:05:50.568Z,2.46
2023-02-14T00:06:52.299Z,2.46
2023-02-14T00:07:54.046Z,2.46
2023-02-14T00:08:55.773Z,2.45
2023-02-14T00:09:57.498Z,2.44
2023-02-14T00:10:59.551Z,2.43
2023-02-14T00:12:00.960Z,2.41
2023-02-14T00:13:02.719Z,2.38
2023-02-14T00:14:04.445Z,2.36
2023-02-14T00:15:06.164Z,2.33
2023-02-14T00:16:07.905Z,2.29
2023-02-14T00:17:09.630Z,2.26
2023-02-14T00:18:11.376Z,2.22
2023-02-14T00:19:13.109Z,2.19
2023-02-14T00:20:14.837Z,2.15
2023-02-14T00:21:16.565Z,2.11
2023-02-14T00:22:18.308Z,2.06
2023-02-14T00:23:20.056Z,2.02
2023-02-14T00:24:21.774Z,1.97
2023-02-14T00:25:23.573Z,1.94
2023-02-14T00:26:25.244Z,1.9
2023-02-14T00:27:26.976Z,1.86
2023-02-14T00:28:28.718Z,1.82
2023-02-14T00:29:30.557Z,1.78
2023-02-14T00:30:32.275Z,1.75
2023-02-14T00:31:33.990Z,1.71
2023-02-14T00:32:35.640Z,1.67
2023-02-14T00:33:37.356Z,1.64
2023-02-14T00:34:39.076Z,1.61
2023-02-14T00:35:40.818Z,1.58
2023-02-14T00:36:42.537Z,1.55
2023-02-14T00:37:44.272Z,1.52
2023-02-14T00:38:46.017Z,1.49
2023-02-14T00:39:47.739Z,1.48
2023-02-14T00:40:49.456Z,1.44
2023-02-14T00:41:51.194Z,1.43
2023-02-14T00:42:52.946Z,1.41
2023-02-14T00:43:54.721Z,1.4
2023-02-14T00:44:56.450Z,1.38
2023-02-14T00:45:58.267Z,1.35
2023-02-14T00:46:59.871Z,1.34
2023-02-14T00:48:01.590Z,1.32
2023-02-14T00:49:03.373Z,1.31
2023-02-14T00:50:05.082Z,1.3
2023-02-14T00:51:06.934Z,1.3
2023-02-14T00:52:08.558Z,1.27
2023-02-14T00:53:10.277Z,1.25
2023-02-14T00:54:12.023Z,1.25
2023-02-14T00:55:13.737Z,1.23
2023-02-14T00:56:15.455Z,1.22
2023-02-14T00:57:17.191Z,1.21
2023-02-14T00:58:18.930Z,1.19
2023-02-14T00:59:20.733Z,1.18
2023-02-14T01:00:22.408Z,1.16
2023-02-14T01:01:24.182Z,1.15
2023-02-14T01:02:25.903Z,1.14
2023-02-14T01:03:27.627Z,1.13
2023-02-14T01:04:29.355Z,1.11
2023-02-14T01:05:31.086Z,1.09
2023-02-14T01:06:32.819Z,1.09
2023-02-14T01:07:34.569Z,1.07
2023-02-14T01:08:36.287Z,1.07
2023-02-14T01:09:38.017Z,1.05
2023-02-14T01:10:39.742Z,1.05
2023-02-14T01:11:41.473Z,1.02
2023-02-14T01:12:43.207Z,1.02
2023-02-14T01:13:44.942Z,1
2023-02-14T01:14:46.692Z,1
2023-02-14T01:15:48.414Z,0.98
2023-02-14T01:16:50.241Z,0.99
2023-02-14T01:17:51.900Z,0.98
2023-02-14T01:18:53.609Z,0.97
2023-02-14T01:19:55.359Z,0.99
2023-02-14T01:20:57.393Z,0.98
2023-02-14T01:21:58.799Z,0.97
2023-02-14T01:23:00.544Z,0.98
2023-02-14T01:24:02.269Z,0.98
2023-02-14T01:25:04.016Z,0.98
2023-02-14T01:26:05.729Z,0.98
2023-02-14T01:27:07.471Z,0.98
2023-02-14T01:28:09.219Z,0.98
2023-02-14T01:29:11.000Z,1
2023-02-14T01:30:12.733Z,0.99
2023-02-14T01:31:14.565Z,1
2023-02-14T01:32:16.224Z,1.01
2023-02-14T01:33:17.894Z,1.02
2023-02-14T01:34:19.609Z,1.02
2023-02-14T01:35:21.350Z,1.03
2023-02-14T01:36:23.089Z,1.03
2023-02-14T01:37:24.814Z,1.03
2023-02-14T01:38:26.571Z,1.03
2023-02-14T01:39:28.289Z,1.02
2023-02-14T01:40:30.024Z,1.02
2023-02-14T01:41:31.759Z,1.02
2023-02-14T01:42:33.502Z,1.02
2023-02-14T01:43:35.233Z,1
2023-02-14T01:44:36.957Z,1.01
2023-02-14T01:45:38.733Z,1
2023-02-14T01:46:40.416Z,0.99
2023-02-14T01:47:42.151Z,0.99
2023-02-14T01:48:43.905Z,0.96
2023-02-14T01:49:45.614Z,0.96
2023-02-14T01:50:47.357Z,0.96
2023-02-14T01:51:49.083Z,0.95
2023-02-14T01:52:50.825Z,0.92
2023-02-14T01:53:52.558Z,0.91
2023-02-14T01:54:54.294Z,0.9
2023-02-14T01:55:56.015Z,0.88
2023-02-14T01:56:57.760Z,0.88
2023-02-14T01:57:59.536Z,0.87
2023-02-14T01:59:01.224Z,0.87
2023-02-14T02:00:02.964Z,0.88
2023-02-14T02:01:04.748Z,0.87
2023-02-14T02:02:06.470Z,0.89
2023-02-14T02:03:08.163Z,0.93
2023-02-14T02:04:09.915Z,0.96
2023-02-14T02:05:11.644Z,0.98
2023-02-14T02:06:13.358Z,0.99
2023-02-14T02:07:15.085Z,1.01
2023-02-14T02:08:16.836Z,1.04
2023-02-14T02:09:18.569Z,1.05
2023-02-14T02:10:20.286Z,1.06
2023-02-14T02:11:22.045Z,1.07
2023-02-14T02:12:23.759Z,1.09
2023-02-14T02:13:25.534Z,1.08
2023-02-14T02:14:27.238Z,1.09
2023-02-14T02:15:28.958Z,1.09
2023-02-14T02:16:30.778Z,1.09
2023-02-14T02:17:32.427Z,1.11
2023-02-14T02:18:34.174Z,1.11
2023-02-14T02:19:35.900Z,1.13
2023-02-14T02:20:37.623Z,1.14
2023-02-14T02:21:39.359Z,1.14
2023-02-14T02:22:41.096Z,1.15
2023-02-14T02:23:42.842Z,1.16
2023-02-14T02:24:44.811Z,1.17
2023-02-14T02:25:46.351Z,1.18
2023-02-14T02:26:48.035Z,1.17
2023-02-14T02:27:49.766Z,1.18
2023-02-14T02:28:51.507Z,1.18
2023-02-14T02:29:53.325Z,1.18
2023-02-14T02:30:55.081Z,1.19
2023-02-14T02:31:56.830Z,1.19
2023-02-14T02:32:58.445Z,1.18
2023-02-14T02:34:00.197Z,1.17
2023-02-14T02:35:01.914Z,1.15
2023-02-14T02:36:03.661Z,1.15
2023-02-14T02:37:05.372Z,1.14
2023-02-14T02:38:07.095Z,1.12
2023-02-14T02:39:08.812Z,1.1
2023-02-14T02:40:10.548Z,1.09
2023-02-14T02:41:12.261Z,1.07
2023-02-14T02:42:13.992Z,1.05
2023-02-14T02:43:15.715Z,1.03
2023-02-14T02:44:17.447Z,1.01
2023-02-14T02:45:19.208Z,0.98
2023-02-14T02:46:20.983Z,0.97
2023-02-14T02:47:22.647Z,0.96
2023-02-14T02:48:24.416Z,0.94
2023-02-14T02:49:26.277Z,0.92
2023-02-14T02:50:27.867Z,0.9
2023-02-14T02:51:29.582Z,0.89
2023-02-14T02:52:31.321Z,0.87
2023-02-14T02:53:33.071Z,0.87
2023-02-14T02:54:34.802Z,0.83
2023-02-14T02:55:36.534Z,0.82
2023-02-14T02:56:38.246Z,0.81
2023-02-14T02:57:39.984Z,0.78
2023-02-14T02:58:41.749Z,0.76
2023-02-14T02:59:43.471Z,0.74
2023-02-14T03:00:45.212Z,0.73
2023-02-14T03:01:47.135Z,0.71
2023-02-14T03:02:48.705Z,0.69
2023-02-14T03:03:50.403Z,0.66
2023-02-14T03:04:52.150Z,0.63
2023-02-14T03:05:53.868Z,0.62
2023-02-14T03:06:55.607Z,0.6
2023-02-14T03:07:57.360Z,0.6
2023-02-14T03:08:59.053Z,0.59
2023-02-14T03:10:00.807Z,0.58
2023-02-14T03:11:02.636Z,0.55
2023-02-14T03:12:04.491Z,0.55
2023-02-14T03:13:06.051Z,0.52
2023-02-14T03:14:07.728Z,0.51
2023-02-14T03:15:09.458Z,0.5
2023-02-14T03:16:11.261Z,0.48
2023-02-14T03:17:12.913Z,0.46
2023-02-14T03:18:14.685Z,0.45
2023-02-14T03:19:16.422Z,0.4
2023-02-14T03:20:18.139Z,0.42
2023-02-14T03:21:19.874Z,0.4
2023-02-14T03:22:21.606Z,0.37
2023-02-14T03:23:23.408Z,0.36
2023-02-14T03:24:25.079Z,0.34
2023-02-14T03:25:26.798Z,0.32
2023-02-14T03:26:28.576Z,0.31
2023-02-14T03:27:30.284Z,0.31
2023-02-14T03:28:32.024Z,0.28
2023-02-14T03:29:33.754Z,0.27
2023-02-14T03:30:35.479Z,0.26
2023-02-14T03:31:37.495Z,0.25
2023-02-14T03:32:38.995Z,0.24
2023-02-14T03:33:40.678Z,0.21
2023-02-14T03:34:42.424Z,0.19
2023-02-14T03:35:44.165Z,0.17
2023-02-14T03:36:45.903Z,0.16
2023-02-14T03:37:47.626Z,0.15
2023-02-14T03:38:49.364Z,0.13
2023-02-14T03:39:51.099Z,0.13
2023-02-14T03:40:52.817Z,0.11
2023-02-14T03:41:54.557Z,0.12
2023-02-14T03:42:56.319Z,0.13
2023-02-14T03:43:58.024Z,0.13
2023-02-14T03:44:59.762Z,0.15
2023-02-14T03:46:01.562Z,0.17
2023-02-14T03:47:03.289Z,0.2
2023-02-14T03:48:04.979Z,0.21
2023-02-14T03:49:06.689Z,0.23
2023-02-14T03:50:08.430Z,0.25
2023-02-14T03:51:10.157Z,0.25
2023-02-14T03:52:11.887Z,0.27
2023-02-14T03:53:13.628Z,0.27
2023-02-14T03:54:15.384Z,0.26
2023-02-14T03:55:17.114Z,0.25
2023-02-14T03:56:18.829Z,0.24
2023-02-14T03:57:20.564Z,0.21
2023-02-14T03:58:22.347Z,0.21
2023-02-14T03:59:24.035Z,0.17
2023-02-14T04:00:25.800Z,0.15
2023-02-14T04:01:27.582Z,0.12
2023-02-14T04:02:29.229Z,0.09
2023-02-14T04:03:31.034Z,0.05
2023-02-14T04:04:32.705Z,0.02
2023-02-14T04:05:34.440Z,-0.02
2023-02-14T04:06:36.174Z,-0.05
2023-02-14T04:07:37.929Z,-0.07
2023-02-14T04:08:39.675Z,-0.1
2023-02-14T04:09:41.369Z,-0.11
2023-02-14T04:10:43.109Z,-0.14
2023-02-14T04:11:44.867Z,-0.17
2023-02-14T04:12:46.596Z,-0.2
2023-02-14T04:13:48.326Z,-0.23
2023-02-14T04:14:50.048Z,-0.25
2023-02-14T04:15:51.824Z,-0.29
2023-02-14T04:16:53.517Z,-0.31
2023-02-14T04:17:55.275Z,-0.34
2023-02-14T04:18:56.987Z,-0.36
2023-02-14T04:19:58.721Z,-0.39
2023-02-14T04:21:00.766Z,-0.42
2023-02-14T04:22:02.190Z,-0.43
2023-02-14T04:23:04.135Z,-0.45
2023-02-14T04:24:05.653Z,-0.48
2023-02-14T04:25:07.395Z,-0.5
2023-02-14T04:26:09.144Z,-0.53
2023-02-14T04:27:11.081Z,-0.54
2023-02-14T04:28:12.602Z,-0.55
2023-02-14T04:29:14.327Z,-0.57
2023-02-14T04:30:16.076Z,-0.58
2023-02-14T04:31:17.894Z,-0.61
2023-02-14T04:32:19.605Z,-0.64
2023-02-14T04:33:21.291Z,-0.64
2023-02-14T04:34:22.978Z,-0.65
2023-02-14T04:35:24.725Z,-0.68
2023-02-14T04:36:26.459Z,-0.69
2023-02-14T04:37:28.177Z,-0.7
2023-02-14T04:38:29.952Z,-0.71
2023-02-14T04:39:31.652Z,-0.71
2023-02-14T04:40:33.391Z,-0.73
2023-02-14T04:41:35.122Z,-0.74
2023-02-14T04:42:36.856Z,-0.76
2023-02-14T04:43:38.595Z,-0.77
2023-02-14T04:44:40.360Z,-0.77
2023-02-14T04:45:42.068Z,-0.77
2023-02-14T04:46:43.852Z,-0.76
2023-02-14T04:47:45.559Z,-0.72
2023-02-14T04:48:47.264Z,-0.71
2023-02-14T04:49:49.001Z,-0.68
2023-02-14T04:50:50.726Z,-0.66
2023-02-14T04:51:52.461Z,-0.64
2023-02-14T04:52:54.201Z,-0.62
2023-02-14T04:53:55.937Z,-0.59
2023-02-14T04:54:57.670Z,-0.57
2023-02-14T04:55:59.403Z,-0.55
2023-02-14T04:57:01.167Z,-0.51
2023-02-14T04:58:02.882Z,-0.49
2023-02-14T04:59:04.606Z,-0.45
2023-02-14T05:00:06.351Z,-0.42
2023-02-14T05:01:08.153Z,-0.39
2023-02-14T05:02:09.870Z,-0.35
2023-02-14T05:03:11.569Z,-0.32
2023-02-14T05:04:13.294Z,-0.29
2023-02-14T05:05:15.014Z,-0.25
2023-02-14T05:06:16.758Z,-0.22
2023-02-14T05:07:18.497Z,-0.19
2023-02-14T05:08:20.236Z,-0.17
2023-02-14T05:09:21.960Z,-0.14
2023-02-14T05:10:23.777Z,-0.11
2023-02-14T05:11:25.423Z,-0.1
2023-02-14T05:12:27.156Z,-0.08
2023-02-14T05:13:28.897Z,-0.07
2023-02-14T05:14:30.634Z,-0.05
2023-02-14T05:15:32.348Z,-0.05
2023-02-14T05:16:34.115Z,-0.03
2023-02-14T05:17:35.834Z,-0.02
2023-02-14T05:18:37.559Z,-0.01
2023-02-14T05:19:39.300Z,0.01
2023-02-14T05:20:41.030Z,0.02
2023-02-14T05:21:42.848Z,0.04
2023-02-14T05:22:44.617Z,0.05
2023-02-14T05:23:46.227Z,0.05
2023-02-14T05:24:47.968Z,0.07
2023-02-14T05:25:49.687Z,0.08
2023-02-14T05:26:51.419Z,0.1
2023-02-14T05:27:53.167Z,0.09
2023-02-14T05:28:54.900Z,0.11
2023-02-14T05:29:56.694Z,0.1
2023-02-14T05:30:58.809Z,0.11
2023-02-14T05:32:00.318Z,0.11
2023-02-14T05:33:01.819Z,0.11
2023-02-14T05:34:03.632Z,0.12
2023-02-14T05:35:05.307Z,0.12
2023-02-14T05:36:07.094Z,0.11
2023-02-14T05:37:08.748Z,0.11
2023-02-14T05:38:10.495Z,0.11
2023-02-14T05:39:12.235Z,0.1
2023-02-14T05:40:13.968Z,0.09
2023-02-14T05:41:15.728Z,0.09
2023-02-14T05:42:17.447Z,0.08
2023-02-14T05:43:19.177Z,0.07
2023-02-14T05:44:20.884Z,0.06
2023-02-14T05:45:22.677Z,0.07
2023-02-14T05:46:24.365Z,0.07
2023-02-14T05:47:26.105Z,0.06
2023-02-14T05:48:27.837Z,0.07
2023-02-14T05:49:29.574Z,0.07
2023-02-14T05:50:31.307Z,0.07
2023-02-14T05:51:33.040Z,0.09
2023-02-14T05:52:34.774Z,0.09
2023-02-14T05:53:36.515Z,0.09
2023-02-14T05:54:38.261Z,0.09
2023-02-14T05:55:39.973Z,0.09
2023-02-14T05:56:41.696Z,0.09
2023-02-14T05:57:43.434Z,0.1
2023-02-14T05:58:45.172Z,0.11
2023-02-14T05:59:46.913Z,0.11
2023-02-14T06:00:48.748Z,0.11
2023-02-14T06:01:50.452Z,0.12
2023-02-14T06:02:52.102Z,0.12
2023-02-14T06:03:53.877Z,0.14
2023-02-14T06:04:55.569Z,0.13
2023-02-14T06:05:57.329Z,0.14
2023-02-14T06:06:59.082Z,0.15
2023-02-14T06:08:00.782Z,0.14
2023-02-14T06:09:02.581Z,0.16
2023-02-14T06:10:04.264Z,0.15
2023-02-14T06:11:05.999Z,0.16
2023-02-14T06:12:07.716Z,0.17
2023-02-14T06:13:09.445Z,0.18
2023-02-14T06:14:11.181Z,0.19
2023-02-14T06:15:12.922Z,0.18
2023-02-14T06:16:14.738Z,0.2
2023-02-14T06:17:16.393Z,0.2
2023-02-14T06:18:18.141Z,0.2
2023-02-14T06:19:19.855Z,0.21
2023-02-14T06:20:21.576Z,0.22
2023-02-14T06:21:23.329Z,0.23
2023-02-14T06:22:25.053Z,0.23
2023-02-14T06:23:26.788Z,0.24
2023-02-14T06:24:28.537Z,0.25
2023-02-14T06:25:30.265Z,0.25
2023-02-14T06:26:32.000Z,0.25
2023-02-14T06:27:33.730Z,0.27
2023-02-14T06:28:35.455Z,0.26
2023-02-14T06:29:37.206Z,0.27
2023-02-14T06:30:39.229Z,0.27
2023-02-14T06:31:40.833Z,0.27
2023-02-14T06:32:42.428Z,0.27
2023-02-14T06:33:44.123Z,0.27
2023-02-14T06:34:45.861Z,0.27
2023-02-14T06:35:47.607Z,0.27
2023-02-14T06:36:49.345Z,0.26
2023-02-14T06:37:51.071Z,0.26
2023-02-14T06:38:52.798Z,0.24
2023-02-14T06:39:54.535Z,0.24
2023-02-14T06:40:56.253Z,0.23
2023-02-14T06:41:58.001Z,0.22
2023-02-14T06:42:59.850Z,0.22
2023-02-14T06:44:01.473Z,0.2
2023-02-14T06:45:03.236Z,0.19
2023-02-14T06:46:05.017Z,0.17
2023-02-14T06:47:06.657Z,0.17
2023-02-14T06:48:08.418Z,0.17
2023-02-14T06:49:10.160Z,0.16
2023-02-14T06:50:11.886Z,0.15
2023-02-14T06:51:13.604Z,0.13
2023-02-14T06:52:15.344Z,0.13
2023-02-14T06:53:17.103Z,0.12
2023-02-14T06:54:18.801Z,0.12
2023-02-14T06:55:20.520Z,0.12
2023-02-14T06:56:22.267Z,0.11
2023-02-14T06:57:24.012Z,0.11
2023-02-14T06:58:25.732Z,0.1
2023-02-14T06:59:27.473Z,0.1
2023-02-14T07:00:29.211Z,0.09
2023-02-14T07:01:30.971Z,0.09
2023-02-14T07:02:32.725Z,0.08
2023-02-14T07:03:34.446Z,0.06
2023-02-14T07:04:36.144Z,0.08
2023-02-14T07:05:37.871Z,0.06
2023-02-14T07:06:39.625Z,0.05
2023-02-14T07:07:41.373Z,0.05
2023-02-14T07:08:43.074Z,0.04
2023-02-14T07:09:44.810Z,0.03
2023-02-14T07:10:46.544Z,0.02
2023-02-14T07:11:48.274Z,0.02
2023-02-14T07:12:50.022Z,0
2023-02-14T07:13:51.764Z,0
2023-02-14T07:14:53.468Z,-0.01
2023-02-14T07:15:55.278Z,-0.02
2023-02-14T07:16:56.941Z,-0.04
2023-02-14T07:17:58.693Z,-0.04
2023-02-14T07:19:00.432Z,-0.05
2023-02-14T07:20:02.148Z,-0.07
2023-02-14T07:21:03.859Z,-0.07
2023-02-14T07:22:05.616Z,-0.09
2023-02-14T07:23:07.359Z,-0.11
2023-02-14T07:24:09.105Z,-0.1
2023-02-14T07:25:10.818Z,-0.13
2023-02-14T07:26:12.561Z,-0.15
2023-02-14T07:27:14.288Z,-0.17
2023-02-14T07:28:16.066Z,-0.19
2023-02-14T07:29:17.780Z,-0.2
2023-02-14T07:30:19.597Z,-0.21
2023-02-14T07:31:21.362Z,-0.25
2023-02-14T07:32:23.166Z,-0.26
2023-02-14T07:33:24.702Z,-0.29
2023-02-14T07:34:26.431Z,-0.31
2023-02-14T07:35:28.174Z,-0.33
2023-02-14T07:36:29.908Z,-0.34
2023-02-14T07:37:31.638Z,-0.34
2023-02-14T07:38:33.370Z,-0.36
2023-02-14T07:39:35.096Z,-0.38
2023-02-14T07:40:36.830Z,-0.39
2023-02-14T07:41:38.582Z,-0.41
2023-02-14T07:42:40.291Z,-0.43
2023-02-14T07:43:42.065Z,-0.46
2023-02-14T07:44:43.772Z,-0.47
2023-02-14T07:45:45.517Z,-0.48
2023-02-14T07:46:47.225Z,-0.48
2023-02-14T07:47:49.064Z,-0.49
2023-02-14T07:48:50.714Z,-0.49
2023-02-14T07:49:52.438Z,-0.5
2023-02-14T07:50:54.009Z,-0.52
2023-02-14T07:51:55.742Z,-0.53
2023-02-14T07:52:57.480Z,-0.53
2023-02-14T07:53:59.251Z,-0.54
2023-02-14T07:55:00.966Z,-0.55
2023-02-14T07:56:02.735Z,-0.57
2023-02-14T07:57:04.425Z,-0.57
2023-02-14T07:58:06.168Z,-0.59
2023-02-14T07:59:07.907Z,-0.6
2023-02-14T08:00:09.684Z,-0.65
2023-02-14T08:01:11.385Z,-0.65
2023-02-14T08:02:13.104Z,-0.68
2023-02-14T08:03:14.820Z,-0.71
2023-02-14T08:04:16.559Z,-0.74
2023-02-14T08:05:18.367Z,-0.76
2023-02-14T08:06:20.096Z,-0.79
2023-02-14T08:07:21.774Z,-0.8
2023-02-14T08:08:23.508Z,-0.83
2023-02-14T08:09:25.237Z,-0.85
2023-02-14T08:10:27.060Z,-0.87
2023-02-14T08:11:28.731Z,-0.91
2023-02-14T08:12:30.432Z,-0.94
2023-02-14T08:13:32.165Z,-0.99
2023-02-14T08:14:33.917Z,-1.02
2023-02-14T08:15:35.640Z,-1.02
2023-02-14T08:16:37.389Z,-1.04
2023-02-14T08:17:39.109Z,-1.05
2023-02-14T08:18:40.835Z,-1.06
2023-02-14T08:19:42.574Z,-1.06
2023-02-14T08:20:44.296Z,-1.06
2023-02-14T08:21:46.034Z,-1.05
2023-02-14T08:22:47.765Z,-1.04
2023-02-14T08:23:49.502Z,-1.05
2023-02-14T08:24:51.225Z,-1.06
2023-02-14T08:25:52.988Z,-1.09
2023-02-14T08:26:54.712Z,-1.11
2023-02-14T08:27:56.683Z,-1.11
2023-02-14T08:28:58.173Z,-1.11
2023-02-14T08:29:59.946Z,-1.11
2023-02-14T08:31:02.094Z,-1.11
2023-02-14T08:32:03.498Z,-1.14
2023-02-14T08:33:05.118Z,-1.12
2023-02-14T08:34:06.851Z,-1.13
2023-02-14T08:35:08.610Z,-1.12
2023-02-14T08:36:10.312Z,-1.12
2023-02-14T08:37:12.059Z,-1.11
2023-02-14T08:38:13.805Z,-1.1
2023-02-14T08:39:15.515Z,-1.09
2023-02-14T08:40:17.269Z,-1.07
2023-02-14T08:41:18.992Z,-1.04
2023-02-14T08:42:20.713Z,-1.03
2023-02-14T08:43:22.465Z,-1.01
2023-02-14T08:44:24.180Z,-0.99
2023-02-14T08:45:25.929Z,-0.97
2023-02-14T08:46:27.723Z,-0.96
2023-02-14T08:47:29.394Z,-0.93
2023-02-14T08:48:31.144Z,-0.92
2023-02-14T08:49:32.869Z,-0.91
2023-02-14T08:50:34.617Z,-0.89
2023-02-14T08:51:36.335Z,-0.88
2023-02-14T08:52:38.076Z,-0.87
2023-02-14T08:53:39.835Z,-0.85
2023-02-14T08:54:41.627Z,-0.83
2023-02-14T08:55:43.278Z,-0.84
2023-02-14T08:56:44.997Z,-0.81
2023-02-14T08:57:46.780Z,-0.79
2023-02-14T08:58:48.462Z,-0.78
2023-02-14T08:59:50.235Z,-0.78
2023-02-14T09:00:52.033Z,-0.77
2023-02-14T09:01:53.730Z,-0.74
2023-02-14T09:02:55.495Z,-0.74
2023-02-14T09:03:57.226Z,-0.71
2023-02-14T09:04:58.927Z,-0.71
2023-02-14T09:06:00.603Z,-0.69
2023-02-14T09:07:02.326Z,-0.69
2023-02-14T09:08:04.156Z,-0.66
2023-02-14T09:09:05.873Z,-0.64
2023-02-14T09:10:07.553Z,-0.64
2023-02-14T09:11:09.290Z,-0.62
2023-02-14T09:12:11.075Z,-0.6
2023-02-14T09:13:12.741Z,-0.59
2023-02-14T09:14:14.480Z,-0.56
2023-02-14T09:15:16.221Z,-0.57
2023-02-14T09:16:18.009Z,-0.54
2023-02-14T09:17:19.695Z,-0.53
2023-02-14T09:18:21.489Z,-0.53
2023-02-14T09:19:23.155Z,-0.51
2023-02-14T09:20:25.010Z,-0.51
2023-02-14T09:21:26.640Z,-0.49
2023-02-14T09:22:28.403Z,-0.47
2023-02-14T09:23:30.086Z,-0.45
2023-02-14T09:24:31.817Z,-0.43
2023-02-14T09:25:33.549Z,-0.41
2023-02-14T09:26:35.289Z,-0.4
2023-02-14T09:27:37.038Z,-0.39
2023-02-14T09:28:38.770Z,-0.38
2023-02-14T09:29:40.487Z,-0.38
2023-02-14T09:30:42.442Z,-0.37
2023-02-14T09:31:44.100Z,-0.35
2023-02-14T09:32:45.688Z,-0.35
2023-02-14T09:33:47.409Z,-0.34
2023-02-14T09:34:49.138Z,-0.32
2023-02-14T09:35:50.872Z,-0.32
2023-02-14T09:36:52.624Z,-0.31
2023-02-14T09:37:54.378Z,-0.28
2023-02-14T09:38:56.086Z,-0.26
2023-02-14T09:39:57.829Z,-0.25
2023-02-14T09:40:59.864Z,-0.24
2023-02-14T09:42:01.313Z,-0.24
2023-02-14T09:43:03.030Z,-0.21
2023-02-14T09:44:04.778Z,-0.21
2023-02-14T09:45:06.491Z,-0.2
2023-02-14T09:46:08.271Z,-0.19
2023-02-14T09:47:09.981Z,-0.18
2023-02-14T09:48:11.701Z,-0.16
2023-02-14T09:49:13.518Z,-0.17
2023-02-14T09:50:15.167Z,-0.15
2023-02-14T09:51:16.898Z,-0.13
2023-02-14T09:52:18.626Z,-0.13
2023-02-14T09:53:20.370Z,-0.11
2023-02-14T09:54:22.118Z,-0.09
2023-02-14T09:55:23.849Z,-0.08
2023-02-14T09:56:25.574Z,-0.07
2023-02-14T09:57:27.314Z,-0.03
2023-02-14T09:58:29.027Z,-0.02
2023-02-14T09:59:30.767Z,0.01
2023-02-14T10:00:32.538Z,0.04
2023-02-14T10:01:34.383Z,0.06
2023-02-14T10:02:36.064Z,0.07
2023-02-14T10:03:37.717Z,0.07
2023-02-14T10:04:39.883Z,0.1
2023-02-14T10:05:41.221Z,0.12
2023-02-14T10:06:42.924Z,0.13
2023-02-14T10:07:44.633Z,0.15
2023-02-14T10:08:46.398Z,0.16
2023-02-14T10:09:48.150Z,0.17
2023-02-14T10:10:49.839Z,0.2
2023-02-14T10:11:51.588Z,0.23
2023-02-14T10:12:53.309Z,0.23
2023-02-14T10:13:55.073Z,0.25
2023-02-14T10:14:56.790Z,0.26
2023-02-14T10:15:58.518Z,0.28
2023-02-14T10:17:00.320Z,0.31
2023-02-14T10:18:01.978Z,0.31
2023-02-14T10:19:03.711Z,0.32
2023-02-14T10:20:05.438Z,0.33
2023-02-14T10:21:07.199Z,0.33
2023-02-14T10:22:09.020Z,0.34
2023-02-14T10:23:10.640Z,0.35
2023-02-14T10:24:12.412Z,0.37
2023-02-14T10:25:14.123Z,0.39
2023-02-14T10:26:15.856Z,0.4
2023-02-14T10:27:17.572Z,0.4
2023-02-14T10:28:19.328Z,0.41
2023-02-14T10:29:21.070Z,0.43
2023-02-14T10:30:23.004Z,0.44
2023-02-14T10:31:24.669Z,0.45
2023-02-14T10:32:26.292Z,0.49
2023-02-14T10:33:28.015Z,0.49
2023-02-14T10:34:29.727Z,0.49
2023-02-14T10:35:31.447Z,0.51
2023-02-14T10:36:33.191Z,0.51
2023-02-14T10:37:34.942Z,0.53
2023-02-14T10:38:36.684Z,0.53
2023-02-14T10:39:38.432Z,0.52
2023-02-14T10:40:40.135Z,0.53
2023-02-14T10:41:41.885Z,0.54
2023-02-14T10:42:43.610Z,0.54
2023-02-14T10:43:45.336Z,0.56
2023-02-14T10:44:47.075Z,0.57
2023-02-14T10:45:48.851Z,0.59
2023-02-14T10:46:50.557Z,0.58
2023-02-14T10:47:52.287Z,0.57
2023-02-14T10:48:54.009Z,0.58
2023-02-14T10:49:55.737Z,0.58
2023-02-14T10:50:57.672Z,0.56
2023-02-14T10:51:59.225Z,0.57
2023-02-14T10:53:00.946Z,0.58
2023-02-14T10:54:02.673Z,0.59
2023-02-14T10:55:04.403Z,0.58
2023-02-14T10:56:06.141Z,0.58
2023-02-14T10:57:07.893Z,0.58
2023-02-14T10:58:09.602Z,0.6
2023-02-14T10:59:11.336Z,0.6
2023-02-14T11:00:13.107Z,0.62
2023-02-14T11:01:14.859Z,0.63
2023-02-14T11:02:16.557Z,0.64
2023-02-14T11:03:18.317Z,0.65
2023-02-14T11:04:20.024Z,0.66
2023-02-14T11:05:21.754Z,0.66
2023-02-14T11:06:23.492Z,0.66
2023-02-14T11:07:25.227Z,0.66
2023-02-14T11:08:26.965Z,0.67
2023-02-14T11:09:28.684Z,0.69
2023-02-14T11:10:30.423Z,0.69
2023-02-14T11:11:32.158Z,0.7
2023-02-14T11:12:33.915Z,0.72
2023-02-14T11:13:35.628Z,0.74
2023-02-14T11:14:37.368Z,0.75
2023-02-14T11:15:39.108Z,0.74
2023-02-14T11:16:40.934Z,0.75
2023-02-14T11:17:42.582Z,0.75
2023-02-14T11:18:44.300Z,0.76
2023-02-14T11:19:46.022Z,0.76
2023-02-14T11:20:47.781Z,0.77
2023-02-14T11:21:49.491Z,0.78
2023-02-14T11:22:51.236Z,0.78
2023-02-14T11:23:52.972Z,0.79
2023-02-14T11:24:54.695Z,0.79
2023-02-14T11:25:56.423Z,0.82
2023-02-14T11:26:58.187Z,0.82
2023-02-14T11:27:59.921Z,0.82
2023-02-14T11:29:01.639Z,0.82
2023-02-14T11:30:03.393Z,0.83
2023-02-14T11:31:05.398Z,0.83
2023-02-14T11:32:06.922Z,0.83
2023-02-14T11:33:08.577Z,0.84
2023-02-14T11:34:10.306Z,0.86
2023-02-14T11:35:12.054Z,0.88
2023-02-14T11:36:13.771Z,0.89
2023-02-14T11:37:15.486Z,0.91
2023-02-14T11:38:17.245Z,0.93
2023-02-14T11:39:20.844Z,0.93
2023-02-14T11:40:20.725Z,0.95
2023-02-14T11:43:42.061Z,0.94
2023-02-14T11:44:27.671Z,0.94
2023-02-14T11:45:29.374Z,0.95
2023-02-14T11:46:32.507Z,0.96
2023-02-14T11:47:32.844Z,0.97
2023-02-14T11:48:38.555Z,0.97
2023-02-14T11:49:36.314Z,0.98
2023-02-14T11:50:43.069Z,1
2023-02-14T11:51:39.777Z,1
2023-02-14T11:52:41.518Z,1.01
2023-02-14T11:53:43.244Z,1.01
2023-02-14T11:54:45.066Z,1.03
2023-02-14T11:55:46.718Z,1.01
2023-02-14T11:56:48.457Z,1.01
2023-02-14T11:57:50.185Z,1.01
2023-02-14T11:58:51.918Z,1
2023-02-14T11:59:53.649Z,1
2023-02-14T12:00:55.395Z,1
2023-02-14T12:01:57.131Z,0.99
2023-02-14T12:02:58.863Z,1.01
2023-02-14T12:04:00.732Z,1.01
2023-02-14T12:05:02.317Z,1.01
2023-02-14T12:06:04.050Z,0.99
2023-02-14T12:07:05.795Z,1.01
2023-02-14T12:08:07.522Z,1
2023-02-14T12:09:09.270Z,1.02
2023-02-14T12:10:10.998Z,1.03
2023-02-14T12:11:12.752Z,1.02
2023-02-14T12:12:14.461Z,1.02
2023-02-14T12:13:16.184Z,1.01
2023-02-14T12:14:17.930Z,0.98
2023-02-14T12:15:19.652Z,0.94
2023-02-14T12:16:21.378Z,0.94
2023-02-14T12:17:23.326Z,0.92
2023-02-14T12:18:24.872Z,0.92
2023-02-14T12:19:26.607Z,0.91
2023-02-14T12:20:28.339Z,0.91
2023-02-14T12:21:30.068Z,0.91
2023-02-14T12:22:31.789Z,0.91
2023-02-14T12:23:33.521Z,0.91
2023-02-14T12:24:35.296Z,0.9
2023-02-14T12:25:37.002Z,0.92
2023-02-14T12:26:38.718Z,0.9
2023-02-14T12:27:40.468Z,0.89
2023-02-14T12:28:42.209Z,0.9
2023-02-14T12:29:43.934Z,0.9
2023-02-14T12:30:45.714Z,0.9
2023-02-14T12:31:47.538Z,0.89
2023-02-14T12:32:49.149Z,0.89
2023-02-14T12:33:50.875Z,0.88
2023-02-14T12:34:52.603Z,0.88
2023-02-14T12:35:54.332Z,0.87
2023-02-14T12:36:56.060Z,0.87
2023-02-14T12:38:04.399Z,0.88
2023-02-14T12:38:59.573Z,0.86
2023-02-14T12:40:01.267Z,0.88
2023-02-14T12:41:03.116Z,0.86
2023-02-14T12:42:04.743Z,0.86
2023-02-14T12:43:06.477Z,0.86
2023-02-14T12:44:08.201Z,0.86
2023-02-14T12:45:09.937Z,0.84
2023-02-14T12:46:11.712Z,0.85
2023-02-14T12:47:13.394Z,0.84
2023-02-14T12:48:16.641Z,0.82
2023-02-14T12:49:16.890Z,0.83
2023-02-14T12:50:18.640Z,0.84
2023-02-14T12:51:20.333Z,0.85
2023-02-14T12:52:22.082Z,0.85
2023-02-14T12:53:23.797Z,0.85
2023-02-14T12:54:25.542Z,0.84
2023-02-14T12:55:27.281Z,0.84
2023-02-14T12:56:29.110Z,0.86
2023-02-14T12:57:30.738Z,0.86
2023-02-14T12:58:32.474Z,0.84
2023-02-14T12:59:34.210Z,0.86
2023-02-14T13:00:35.961Z,0.87
2023-02-14T13:01:39.161Z,0.86
2023-02-14T13:02:39.448Z,0.87
2023-02-14T13:03:41.150Z,0.85
2023-02-14T13:04:42.898Z,0.87
2023-02-14T13:05:44.610Z,0.86
2023-02-14T13:06:46.342Z,0.86
2023-02-14T13:07:48.090Z,0.84
2023-02-14T13:08:49.825Z,0.84
2023-02-14T13:09:51.693Z,0.85
2023-02-14T13:10:53.290Z,0.83
2023-02-14T13:11:55.007Z,0.84
2023-02-14T13:12:56.748Z,0.84
2023-02-14T13:13:58.498Z,0.85
2023-02-14T13:15:00.229Z,0.87
2023-02-14T13:16:01.981Z,0.88
2023-02-14T13:17:03.688Z,0.88
2023-02-14T13:18:05.413Z,0.89
2023-02-14T13:19:07.178Z,0.89
2023-02-14T13:20:08.899Z,0.89
2023-02-14T13:21:10.615Z,0.9
2023-02-14T13:22:12.382Z,0.89
2023-02-14T13:23:14.108Z,0.88
2023-02-14T13:24:15.827Z,0.86
2023-02-14T13:25:17.542Z,0.85
2023-02-14T13:26:19.295Z,0.85
2023-02-14T13:27:22.242Z,0.81
2023-02-14T13:28:22.764Z,0.8
2023-02-14T13:29:24.529Z,0.78
2023-02-14T13:30:26.238Z,0.77
2023-02-14T13:31:28.642Z,0.77
2023-02-14T13:32:29.692Z,0.75
2023-02-14T13:33:34.053Z,0.75
2023-02-14T13:34:33.149Z,0.75
2023-02-14T13:35:34.881Z,0.76
2023-02-14T13:36:36.669Z,0.76
2023-02-14T13:37:39.749Z,0.77
2023-02-14T13:38:40.089Z,0.77